createdAt,value
2022-10-02T00:00:01.663Z,0.00
2022-10-02T00:01:01.656Z,0.00
2022-10-02T00:02:01.644Z,0.00
2022-10-02T00:03:01.654Z,0.00
2022-10-02T00:04:01.694Z,0.00
2022-10-02T00:05:01.629Z,0.00
2022-10-02T00:06:01.599Z,0.00
2022-10-02T00:07:01.593Z,0.00
2022-10-02T00:08:01.580Z,0.00
2022-10-02T00:09:01.570Z,0.00
2022-10-02T00:10:01.581Z,0.00
2022-10-02T00:11:01.555Z,0.00
2022-10-02T00:12:01.537Z,0.00
2022-10-02T00:13:01.546Z,0.00
2022-10-02T00:14:01.520Z,0.00
2022-10-02T00:15:01.528Z,0.00
2022-10-02T00:16:01.569Z,0.00
2022-10-02T00:17:01.480Z,0.00
2022-10-02T00:18:01.474Z,0.00
2022-10-02T00:19:01.460Z,0.00
2022-10-02T00:20:01.477Z,0.00
2022-10-02T00:21:01.440Z,0.00
2022-10-02T00:22:01.444Z,0.00
2022-10-02T00:23:01.412Z,0.00
2022-10-02T00:24:01.408Z,0.00
2022-10-02T00:25:01.422Z,0.00
2022-10-02T00:26:01.387Z,0.00
2022-10-02T00:27:01.372Z,0.00
2022-10-02T00:28:01.464Z,0.00
2022-10-02T00:29:01.373Z,0.00
2022-10-02T00:30:01.368Z,0.00
2022-10-02T00:31:01.349Z,0.00
2022-10-02T00:32:01.416Z,0.00
2022-10-02T00:33:01.310Z,0.00
2022-10-02T00:34:01.296Z,0.00
2022-10-02T00:35:01.311Z,0.00
2022-10-02T00:36:01.296Z,0.00
2022-10-02T00:37:01.269Z,0.00
2022-10-02T00:38:01.252Z,0.00
2022-10-02T00:39:01.242Z,0.00
2022-10-02T00:40:01.240Z,0.00
2022-10-02T00:41:01.240Z,0.00
2022-10-02T00:42:01.237Z,0.00
2022-10-02T00:43:01.202Z,0.00
2022-10-02T00:44:01.190Z,0.00
2022-10-02T00:45:01.206Z,0.00
2022-10-02T00:46:01.224Z,0.00
2022-10-02T00:47:01.181Z,0.00
2022-10-02T00:48:01.146Z,0.00
2022-10-02T00:49:01.139Z,0.00
2022-10-02T00:50:01.133Z,0.00
2022-10-02T00:51:01.132Z,0.00
2022-10-02T00:52:01.125Z,0.00
2022-10-02T00:53:01.093Z,0.00
2022-10-02T00:54:01.078Z,0.00
2022-10-02T00:55:01.064Z,0.00
2022-10-02T00:56:01.063Z,0.00
2022-10-02T00:57:01.069Z,0.00
2022-10-02T00:58:01.045Z,0.00
2022-10-02T00:59:01.024Z,0.00
2022-10-02T01:00:01.018Z,0.00
2022-10-02T01:01:01.077Z,0.00
2022-10-02T01:02:01.062Z,0.00
2022-10-02T01:03:00.985Z,0.00
2022-10-02T01:04:00.970Z,0.00
2022-10-02T01:05:00.961Z,0.00
2022-10-02T01:06:00.949Z,0.00
2022-10-02T01:07:00.962Z,0.00
2022-10-02T01:08:00.932Z,0.00
2022-10-02T01:09:00.920Z,0.00
2022-10-02T01:10:00.907Z,0.00
2022-10-02T01:11:00.901Z,0.00
2022-10-02T01:12:00.913Z,0.00
2022-10-02T01:13:00.875Z,0.00
2022-10-02T01:14:00.863Z,0.00
2022-10-02T01:15:00.856Z,0.00
2022-10-02T01:16:00.943Z,0.00
2022-10-02T01:17:00.875Z,0.00
2022-10-02T01:18:00.828Z,0.00
2022-10-02T01:19:00.809Z,0.00
2022-10-02T01:20:00.807Z,0.00
2022-10-02T01:21:00.788Z,0.00
2022-10-02T01:22:00.802Z,0.00
2022-10-02T01:23:00.766Z,0.00
2022-10-02T01:24:00.761Z,0.00
2022-10-02T01:25:00.748Z,0.00
2022-10-02T01:26:00.739Z,0.00
2022-10-02T01:27:00.755Z,0.00
2022-10-02T01:28:00.793Z,0.00
2022-10-02T01:29:00.700Z,0.00
2022-10-02T01:30:00.695Z,0.00
2022-10-02T01:31:00.682Z,0.00
2022-10-02T01:32:00.737Z,0.00
2022-10-02T01:33:00.697Z,0.00
2022-10-02T01:34:00.687Z,0.00
2022-10-02T01:35:00.640Z,0.00
2022-10-02T01:36:00.625Z,0.00
2022-10-02T01:37:00.614Z,0.00
2022-10-02T01:38:00.625Z,0.00
2022-10-02T01:39:00.627Z,0.00
2022-10-02T01:40:00.586Z,0.00
2022-10-02T01:41:00.574Z,0.00
2022-10-02T01:42:00.561Z,0.00
2022-10-02T01:43:00.554Z,0.00
2022-10-02T01:44:00.547Z,0.00
2022-10-02T01:45:00.554Z,0.00
2022-10-02T01:46:00.586Z,0.00
2022-10-02T01:47:00.507Z,0.00
2022-10-02T01:48:00.501Z,0.00
2022-10-02T01:49:00.534Z,0.00
2022-10-02T01:50:00.475Z,0.00
2022-10-02T01:51:00.466Z,0.00
2022-10-02T01:52:00.464Z,0.00
2022-10-02T01:53:00.439Z,0.00
2022-10-02T01:54:00.484Z,0.00
2022-10-02T01:55:00.421Z,0.00
2022-10-02T01:56:00.412Z,0.00
2022-10-02T01:57:00.402Z,0.00
2022-10-02T01:58:00.399Z,0.00
2022-10-02T01:59:00.376Z,0.00
2022-10-02T02:00:00.408Z,0.00
2022-10-02T02:01:00.447Z,0.00
2022-10-02T02:02:00.424Z,0.00
2022-10-02T02:03:00.339Z,0.00
2022-10-02T02:04:00.327Z,0.00
2022-10-02T02:05:00.352Z,0.00
2022-10-02T02:06:00.310Z,0.00
2022-10-02T02:07:00.311Z,0.00
2022-10-02T02:08:00.285Z,0.00
2022-10-02T02:09:01.979Z,0.00
2022-10-02T02:10:00.258Z,0.00
2022-10-02T02:11:00.250Z,0.00
2022-10-02T02:12:00.262Z,0.00
2022-10-02T02:13:00.227Z,0.00
2022-10-02T02:14:00.221Z,0.00
2022-10-02T02:15:00.207Z,0.00
2022-10-02T02:16:00.252Z,0.00
2022-10-02T02:17:00.312Z,0.00
2022-10-02T02:18:00.175Z,0.00
2022-10-02T02:19:00.163Z,0.00
2022-10-02T02:20:00.154Z,0.00
2022-10-02T02:21:00.177Z,0.00
2022-10-02T02:22:00.154Z,0.00
2022-10-02T02:23:00.117Z,0.00
2022-10-02T02:24:00.109Z,0.00
2022-10-02T02:25:00.107Z,0.00
2022-10-02T02:26:00.102Z,0.00
2022-10-02T02:27:00.079Z,0.00
2022-10-02T02:28:00.152Z,0.00
2022-10-02T02:29:00.058Z,0.00
2022-10-02T02:30:00.049Z,0.00
2022-10-02T02:31:00.049Z,0.00
2022-10-02T02:32:00.111Z,0.00
2022-10-02T02:33:00.035Z,0.00
2022-10-02T02:34:00.003Z,0.00
2022-10-02T02:34:59.989Z,0.00
2022-10-02T02:35:59.981Z,0.00
2022-10-02T02:36:59.983Z,0.00
2022-10-02T02:37:59.980Z,0.00
2022-10-02T02:38:59.948Z,0.00
2022-10-02T02:39:59.941Z,0.00
2022-10-02T02:40:59.928Z,0.00
2022-10-02T02:41:59.938Z,0.00
2022-10-02T02:42:59.930Z,0.00
2022-10-02T02:43:59.906Z,0.00
2022-10-02T02:44:59.916Z,0.00
2022-10-02T02:45:59.919Z,0.00
2022-10-02T02:46:59.881Z,0.00
2022-10-02T02:47:59.859Z,0.00
2022-10-02T02:48:59.840Z,0.00
2022-10-02T02:49:59.857Z,0.00
2022-10-02T02:50:59.812Z,0.00
2022-10-02T02:51:59.811Z,0.00
2022-10-02T02:52:59.821Z,0.00
2022-10-02T02:53:59.783Z,0.00
2022-10-02T02:54:59.790Z,0.00
2022-10-02T02:55:59.766Z,0.00
2022-10-02T02:56:59.749Z,0.00
2022-10-02T02:57:59.744Z,0.00
2022-10-02T02:58:59.734Z,0.00
2022-10-02T02:59:59.741Z,0.00
2022-10-02T03:00:59.755Z,0.00
2022-10-02T03:01:59.742Z,0.00
2022-10-02T03:02:59.688Z,0.00
2022-10-02T03:03:59.675Z,0.00
2022-10-02T03:04:59.689Z,0.00
2022-10-02T03:05:59.657Z,0.00
2022-10-02T03:06:59.649Z,0.00
2022-10-02T03:07:59.632Z,0.00
2022-10-02T03:08:59.643Z,0.00
2022-10-02T03:09:59.640Z,0.00
2022-10-02T03:10:59.603Z,0.00
2022-10-02T03:11:59.627Z,0.00
2022-10-02T03:12:59.585Z,0.00
2022-10-02T03:13:59.567Z,0.00
2022-10-02T03:14:59.586Z,0.00
2022-10-02T03:15:59.587Z,0.00
2022-10-02T03:16:59.559Z,0.00
2022-10-02T03:17:59.533Z,0.00
2022-10-02T03:18:59.517Z,0.00
2022-10-02T03:19:59.503Z,0.00
2022-10-02T03:20:59.490Z,0.00
2022-10-02T03:21:59.507Z,0.00
2022-10-02T03:22:59.468Z,0.00
2022-10-02T03:23:59.461Z,0.00
2022-10-02T03:24:59.476Z,0.00
2022-10-02T03:25:59.462Z,0.00
2022-10-02T03:26:59.457Z,0.00
2022-10-02T03:27:59.483Z,0.00
2022-10-02T03:28:59.464Z,0.00
2022-10-02T03:29:59.401Z,0.00
2022-10-02T03:30:59.381Z,0.00
2022-10-02T03:31:59.394Z,0.00
2022-10-02T03:32:59.366Z,0.00
2022-10-02T03:33:59.352Z,0.00
2022-10-02T03:34:59.345Z,0.00
2022-10-02T03:35:59.333Z,0.00
2022-10-02T03:36:59.361Z,0.00
2022-10-02T03:37:59.329Z,0.00
2022-10-02T03:40:00.295Z,0.00
2022-10-02T03:40:59.292Z,0.00
2022-10-02T03:41:59.269Z,0.00
2022-10-02T03:42:59.267Z,0.00
2022-10-02T03:43:59.249Z,0.00
2022-10-02T03:44:59.234Z,0.00
2022-10-02T03:45:59.265Z,0.00
2022-10-02T03:46:59.215Z,0.00
2022-10-02T03:47:59.220Z,0.00
2022-10-02T03:48:59.214Z,0.00
2022-10-02T03:49:59.184Z,0.00
2022-10-02T03:50:59.169Z,0.00
2022-10-02T03:51:59.162Z,0.00
2022-10-02T03:52:59.180Z,0.00
2022-10-02T03:53:59.160Z,0.00
2022-10-02T03:54:59.125Z,0.00
2022-10-02T03:55:59.115Z,0.00
2022-10-02T03:56:59.213Z,0.00
2022-10-02T03:57:59.093Z,0.00
2022-10-02T03:58:59.111Z,0.00
2022-10-02T03:59:59.076Z,0.00
2022-10-02T04:00:59.064Z,0.00
2022-10-02T04:01:59.101Z,0.00
2022-10-02T04:02:59.040Z,0.00
2022-10-02T04:03:59.084Z,0.00
2022-10-02T04:04:59.027Z,0.00
2022-10-02T04:05:59.012Z,0.00
2022-10-02T04:06:59.003Z,0.00
2022-10-02T04:07:58.993Z,0.00
2022-10-02T04:08:59.003Z,0.00
2022-10-02T04:09:58.964Z,0.00
2022-10-02T04:10:58.960Z,0.00
2022-10-02T04:11:58.946Z,0.00
2022-10-02T04:12:58.964Z,0.00
2022-10-02T04:13:58.944Z,0.00
2022-10-02T04:14:58.921Z,0.00
2022-10-02T04:15:58.976Z,0.00
2022-10-02T04:16:58.894Z,0.00
2022-10-02T04:17:59.261Z,0.00
2022-10-02T04:18:58.884Z,0.00
2022-10-02T04:19:58.863Z,0.00
2022-10-02T04:20:58.852Z,0.00
2022-10-02T04:21:58.853Z,0.00
2022-10-02T04:22:58.827Z,0.00
2022-10-02T04:23:58.838Z,0.00
2022-10-02T04:24:58.809Z,0.00
2022-10-02T04:25:58.790Z,0.00
2022-10-02T04:26:58.783Z,0.00
2022-10-02T04:27:58.846Z,0.00
2022-10-02T04:28:58.804Z,0.00
2022-10-02T04:29:58.751Z,0.00
2022-10-02T04:30:58.739Z,0.00
2022-10-02T04:31:58.881Z,0.00
2022-10-02T04:32:58.734Z,0.00
2022-10-02T04:33:58.727Z,0.00
2022-10-02T04:34:58.694Z,0.00
2022-10-02T04:35:58.685Z,0.00
2022-10-02T04:36:58.693Z,0.00
2022-10-02T04:37:58.668Z,0.00
2022-10-02T04:38:58.690Z,0.00
2022-10-02T04:39:58.642Z,0.00
2022-10-02T04:40:58.641Z,0.00
2022-10-02T04:41:58.624Z,0.00
2022-10-02T04:42:58.609Z,0.00
2022-10-02T04:43:58.629Z,0.00
2022-10-02T04:44:58.609Z,0.00
2022-10-02T04:45:58.639Z,0.00
2022-10-02T04:46:58.571Z,0.00
2022-10-02T04:47:58.555Z,0.00
2022-10-02T04:48:58.550Z,0.00
2022-10-02T04:49:58.556Z,0.00
2022-10-02T04:50:58.522Z,0.00
2022-10-02T04:51:58.514Z,0.00
2022-10-02T04:52:58.529Z,4.00
2022-10-02T04:53:58.496Z,4.00
2022-10-02T04:54:58.502Z,0.00
2022-10-02T04:55:58.466Z,0.00
2022-10-02T04:56:58.461Z,0.00
2022-10-02T04:57:58.475Z,4.00
2022-10-02T04:58:58.441Z,4.00
2022-10-02T04:59:58.424Z,4.00
2022-10-02T05:00:58.478Z,0.00
2022-10-02T05:01:58.471Z,0.00
2022-10-02T05:02:58.391Z,4.00
2022-10-02T05:04:01.942Z,4.00
2022-10-02T05:04:59.397Z,8.00
2022-10-02T05:05:58.358Z,4.00
2022-10-02T05:06:58.357Z,8.00
2022-10-02T05:07:58.340Z,4.00
2022-10-02T05:08:58.331Z,4.00
2022-10-02T05:09:58.344Z,8.00
2022-10-02T05:10:58.307Z,8.00
2022-10-02T05:11:58.301Z,12.00
2022-10-02T05:12:58.286Z,8.00
2022-10-02T05:13:58.301Z,12.00
2022-10-02T05:14:58.262Z,12.00
2022-10-02T05:15:58.331Z,16.00
2022-10-02T05:16:58.264Z,12.00
2022-10-02T05:17:58.229Z,12.00
2022-10-02T05:18:58.250Z,20.00
2022-10-02T05:19:58.210Z,20.00
2022-10-02T05:20:58.224Z,16.00
2022-10-02T05:21:58.190Z,20.00
2022-10-02T05:22:58.176Z,20.00
2022-10-02T05:23:58.192Z,20.00
2022-10-02T05:24:58.155Z,20.00
2022-10-02T05:25:58.144Z,24.00
2022-10-02T05:26:58.145Z,24.00
2022-10-02T05:27:58.182Z,24.00
2022-10-02T05:28:58.160Z,28.00
2022-10-02T05:29:58.098Z,32.00
2022-10-02T05:30:58.126Z,28.00
2022-10-02T05:31:58.077Z,28.00
2022-10-02T05:32:58.121Z,32.00
2022-10-02T05:33:58.077Z,32.00
2022-10-02T05:34:58.049Z,32.00
2022-10-02T05:35:58.035Z,36.00
2022-10-02T05:36:58.028Z,32.00
2022-10-02T05:37:58.029Z,36.00
2022-10-02T05:38:58.010Z,36.00
2022-10-02T05:39:58.014Z,40.00
2022-10-02T05:40:57.982Z,36.00
2022-10-02T05:41:57.970Z,40.00
2022-10-02T05:42:57.962Z,40.00
2022-10-02T05:43:57.963Z,44.00
2022-10-02T05:44:57.961Z,44.00
2022-10-02T05:45:57.927Z,44.00
2022-10-02T05:46:57.974Z,48.00
2022-10-02T05:47:57.926Z,48.00
2022-10-02T05:48:57.920Z,56.00
2022-10-02T05:49:57.890Z,56.00
2022-10-02T05:50:57.878Z,64.00
2022-10-02T05:51:57.867Z,72.00
2022-10-02T05:52:57.928Z,68.00
2022-10-02T05:53:57.866Z,72.00
2022-10-02T05:54:57.837Z,80.00
2022-10-02T05:55:57.826Z,96.00
2022-10-02T05:56:57.820Z,96.00
2022-10-02T05:57:57.806Z,100.00
2022-10-02T05:58:57.812Z,100.00
2022-10-02T05:59:57.780Z,96.00
2022-10-02T06:00:57.868Z,112.00
2022-10-02T06:01:57.827Z,120.00
2022-10-02T06:02:57.753Z,112.00
2022-10-02T06:03:57.756Z,120.00
2022-10-02T06:04:57.746Z,148.00
2022-10-02T06:05:57.737Z,144.00
2022-10-02T06:06:57.704Z,148.00
2022-10-02T06:07:57.692Z,144.00
2022-10-02T06:08:57.703Z,152.00
2022-10-02T06:09:57.671Z,144.00
2022-10-02T06:10:57.660Z,132.00
2022-10-02T06:11:57.652Z,128.00
2022-10-02T06:12:57.644Z,128.00
2022-10-02T06:13:57.655Z,128.00
2022-10-02T06:14:57.613Z,132.00
2022-10-02T06:15:57.642Z,140.00
2022-10-02T06:16:57.601Z,148.00
2022-10-02T06:17:57.586Z,168.00
2022-10-02T06:18:57.602Z,156.00
2022-10-02T06:20:02.312Z,120.00
2022-10-02T06:20:58.570Z,104.00
2022-10-02T06:21:57.569Z,120.00
2022-10-02T06:22:57.530Z,140.00
2022-10-02T06:23:57.539Z,136.00
2022-10-02T06:24:57.534Z,160.00
2022-10-02T06:25:57.497Z,136.00
2022-10-02T06:26:57.489Z,112.00
2022-10-02T06:27:57.530Z,92.00
2022-10-02T06:28:57.467Z,84.00
2022-10-02T06:29:57.481Z,68.00
2022-10-02T06:30:57.459Z,72.00
2022-10-02T06:31:57.509Z,88.00
2022-10-02T06:32:57.444Z,116.00
2022-10-02T06:33:57.441Z,108.00
2022-10-02T06:34:57.404Z,96.00
2022-10-02T06:35:57.390Z,104.00
2022-10-02T06:36:57.402Z,96.00
2022-10-02T06:37:57.369Z,132.00
2022-10-02T06:38:57.387Z,140.00
2022-10-02T06:39:57.365Z,136.00
2022-10-02T06:40:57.333Z,136.00
2022-10-02T06:41:57.335Z,160.00
2022-10-02T06:42:57.316Z,172.00
2022-10-02T06:43:57.322Z,204.00
2022-10-02T06:44:57.296Z,228.00
2022-10-02T06:45:57.370Z,240.00
2022-10-02T06:46:57.273Z,188.00
2022-10-02T06:47:57.263Z,136.00
2022-10-02T06:48:57.277Z,124.00
2022-10-02T06:49:57.256Z,132.00
2022-10-02T06:50:57.256Z,124.00
2022-10-02T06:51:57.221Z,120.00
2022-10-02T06:52:57.235Z,132.00
2022-10-02T06:53:57.202Z,148.00
2022-10-02T06:54:57.191Z,224.00
2022-10-02T06:55:57.198Z,188.00
2022-10-02T06:56:57.168Z,180.00
2022-10-02T06:57:57.160Z,148.00
2022-10-02T06:58:57.144Z,164.00
2022-10-02T06:59:57.154Z,172.00
2022-10-02T07:00:57.172Z,172.00
2022-10-02T07:01:57.545Z,156.00
2022-10-02T07:02:57.119Z,152.00
2022-10-02T07:03:57.094Z,156.00
2022-10-02T07:04:57.080Z,168.00
2022-10-02T07:05:57.065Z,188.00
2022-10-02T07:06:57.062Z,164.00
2022-10-02T07:07:57.074Z,172.00
2022-10-02T07:08:57.057Z,176.00
2022-10-02T07:09:57.020Z,176.00
2022-10-02T07:10:57.018Z,164.00
2022-10-02T07:11:57.003Z,180.00
2022-10-02T07:12:57.025Z,228.00
2022-10-02T07:13:56.986Z,240.00
2022-10-02T07:14:56.973Z,204.00
2022-10-02T07:15:57.017Z,180.00
2022-10-02T07:16:56.952Z,172.00
2022-10-02T07:17:56.967Z,164.00
2022-10-02T07:18:56.931Z,168.00
2022-10-02T07:19:56.916Z,148.00
2022-10-02T07:20:56.915Z,140.00
2022-10-02T07:21:56.894Z,144.00
2022-10-02T07:22:56.912Z,172.00
2022-10-02T07:24:02.065Z,432.00
2022-10-02T07:24:57.880Z,244.00
2022-10-02T07:25:56.876Z,156.00
2022-10-02T07:26:56.840Z,188.00
2022-10-02T07:27:56.898Z,248.00
2022-10-02T07:28:56.845Z,244.00
2022-10-02T07:29:56.811Z,192.00
2022-10-02T07:30:56.800Z,184.00
2022-10-02T07:31:56.855Z,188.00
2022-10-02T07:32:56.776Z,204.00
2022-10-02T07:33:56.788Z,176.00
2022-10-02T07:34:56.759Z,224.00
2022-10-02T07:35:56.777Z,192.00
2022-10-02T07:36:56.736Z,200.00
2022-10-02T07:37:56.719Z,224.00
2022-10-02T07:38:56.707Z,196.00
2022-10-02T07:39:56.705Z,192.00
2022-10-02T07:40:59.872Z,228.00
2022-10-02T07:41:56.697Z,188.00
2022-10-02T07:42:56.668Z,184.00
2022-10-02T07:43:56.655Z,184.00
2022-10-02T07:44:56.669Z,212.00
2022-10-02T07:45:56.714Z,252.00
2022-10-02T07:46:56.628Z,192.00
2022-10-02T07:47:56.611Z,200.00
2022-10-02T07:48:56.604Z,208.00
2022-10-02T07:49:56.617Z,220.00
2022-10-02T07:50:56.579Z,212.00
2022-10-02T07:51:56.572Z,232.00
2022-10-02T07:52:56.559Z,240.00
2022-10-02T07:53:56.546Z,252.00
2022-10-02T07:54:56.570Z,308.00
2022-10-02T07:55:56.544Z,336.00
2022-10-02T07:56:56.534Z,288.00
2022-10-02T07:57:56.502Z,312.00
2022-10-02T07:58:56.494Z,500.00
2022-10-02T07:59:56.486Z,368.00
2022-10-02T08:00:56.509Z,776.00
2022-10-02T08:01:56.527Z,668.00
2022-10-02T08:02:56.509Z,676.00
2022-10-02T08:03:56.442Z,592.00
2022-10-02T08:04:56.430Z,664.00
2022-10-02T08:05:56.445Z,664.00
2022-10-02T08:06:56.404Z,588.00
2022-10-02T08:07:56.393Z,656.00
2022-10-02T08:08:56.379Z,596.00
2022-10-02T08:09:56.372Z,664.00
2022-10-02T08:10:56.359Z,596.00
2022-10-02T08:11:56.381Z,596.00
2022-10-02T08:12:56.355Z,580.00
2022-10-02T08:13:56.353Z,384.00
2022-10-02T08:14:56.321Z,556.00
2022-10-02T08:15:56.399Z,396.00
2022-10-02T08:16:56.393Z,564.00
2022-10-02T08:17:58.752Z,492.00
2022-10-02T08:18:57.297Z,376.00
2022-10-02T08:19:56.263Z,448.00
2022-10-02T08:20:56.246Z,424.00
2022-10-02T08:21:56.242Z,344.00
2022-10-02T08:22:56.240Z,432.00
2022-10-02T08:23:56.314Z,612.00
2022-10-02T08:24:56.258Z,680.00
2022-10-02T08:25:56.221Z,720.00
2022-10-02T08:26:56.189Z,584.00
2022-10-02T08:27:56.261Z,296.00
2022-10-02T08:28:56.200Z,316.00
2022-10-02T08:29:56.157Z,408.00
2022-10-02T08:30:56.145Z,500.00
2022-10-02T08:31:56.148Z,552.00
2022-10-02T08:32:56.126Z,592.00
2022-10-02T08:33:56.139Z,712.00
2022-10-02T08:34:56.104Z,700.00
2022-10-02T08:35:56.093Z,776.00
2022-10-02T08:36:56.076Z,556.00
2022-10-02T08:37:56.098Z,544.00
2022-10-02T08:38:56.060Z,608.00
2022-10-02T08:39:56.049Z,584.00
2022-10-02T08:40:56.045Z,688.00
2022-10-02T08:41:56.023Z,800.00
2022-10-02T08:42:56.035Z,908.00
2022-10-02T08:43:56.001Z,980.00
2022-10-02T08:44:56.011Z,984.00
2022-10-02T08:45:56.058Z,952.00
2022-10-02T08:46:55.987Z,856.00
2022-10-02T08:47:55.988Z,1088.00
2022-10-02T08:48:55.946Z,628.00
2022-10-02T08:49:55.937Z,744.00
2022-10-02T08:50:55.929Z,776.00
2022-10-02T08:51:55.934Z,476.00
2022-10-02T08:52:55.930Z,772.00
2022-10-02T08:53:55.898Z,800.00
2022-10-02T08:54:55.886Z,504.00
2022-10-02T08:55:55.874Z,484.00
2022-10-02T08:56:55.860Z,568.00
2022-10-02T08:57:55.873Z,828.00
2022-10-02T08:58:55.850Z,648.00
2022-10-02T08:59:55.829Z,588.00
2022-10-02T09:00:55.906Z,668.00
2022-10-02T09:01:59.782Z,656.00
2022-10-02T09:02:55.836Z,444.00
2022-10-02T09:03:55.789Z,420.00
2022-10-02T09:04:55.773Z,392.00
2022-10-02T09:05:55.763Z,388.00
2022-10-02T09:06:55.755Z,564.00
2022-10-02T09:07:55.746Z,596.00
2022-10-02T09:08:55.749Z,684.00
2022-10-02T09:09:55.724Z,976.00
2022-10-02T09:10:55.711Z,904.00
2022-10-02T09:11:55.704Z,940.00
2022-10-02T09:12:55.688Z,832.00
2022-10-02T09:13:55.698Z,688.00
2022-10-02T09:14:58.815Z,500.00
2022-10-02T09:15:55.668Z,316.00
2022-10-02T09:16:55.712Z,256.00
2022-10-02T09:17:55.629Z,240.00
2022-10-02T09:18:55.648Z,236.00
2022-10-02T09:19:55.620Z,216.00
2022-10-02T09:20:55.604Z,160.00
2022-10-02T09:21:55.592Z,200.00
2022-10-02T09:22:55.581Z,288.00
2022-10-02T09:23:55.580Z,260.00
2022-10-02T09:24:55.583Z,236.00
2022-10-02T09:25:55.546Z,244.00
2022-10-02T09:26:55.535Z,248.00
2022-10-02T09:27:55.591Z,296.00
2022-10-02T09:28:55.551Z,432.00
2022-10-02T09:29:55.521Z,452.00
2022-10-02T09:30:55.493Z,400.00
2022-10-02T09:31:55.543Z,288.00
2022-10-02T09:32:55.487Z,336.00
2022-10-02T09:33:55.460Z,300.00
2022-10-02T09:34:55.474Z,340.00
2022-10-02T09:35:55.437Z,816.00
2022-10-02T09:36:55.428Z,656.00
2022-10-02T09:37:55.418Z,456.00
2022-10-02T09:38:55.407Z,800.00
2022-10-02T09:39:55.422Z,844.00
2022-10-02T09:40:55.380Z,976.00
2022-10-02T09:41:55.375Z,728.00
2022-10-02T09:42:55.370Z,332.00
2022-10-02T09:43:55.370Z,428.00
2022-10-02T09:44:59.110Z,676.00
2022-10-02T09:45:56.411Z,752.00
2022-10-02T09:46:55.317Z,732.00
2022-10-02T09:47:55.305Z,1068.00
2022-10-02T09:48:55.321Z,600.00
2022-10-02T09:49:55.340Z,584.00
2022-10-02T09:50:55.295Z,1080.00
2022-10-02T09:51:55.265Z,560.00
2022-10-02T09:52:55.250Z,504.00
2022-10-02T09:53:55.244Z,392.00
2022-10-02T09:54:55.231Z,408.00
2022-10-02T09:55:55.239Z,472.00
2022-10-02T09:56:55.242Z,500.00
2022-10-02T09:57:55.202Z,684.00
2022-10-02T09:58:55.181Z,548.00
2022-10-02T09:59:55.210Z,656.00
2022-10-02T10:00:55.264Z,696.00
2022-10-02T10:01:55.188Z,1172.00
2022-10-02T10:02:55.144Z,920.00
2022-10-02T10:03:55.165Z,784.00
2022-10-02T10:05:05.619Z,468.00
2022-10-02T10:05:56.108Z,672.00
2022-10-02T10:06:55.094Z,624.00
2022-10-02T10:07:55.091Z,320.00
2022-10-02T10:08:55.105Z,188.00
2022-10-02T10:09:55.067Z,140.00
2022-10-02T10:10:55.055Z,124.00
2022-10-02T10:11:55.053Z,140.00
2022-10-02T10:12:55.032Z,116.00
2022-10-02T10:13:55.044Z,148.00
2022-10-02T10:14:55.031Z,156.00
2022-10-02T10:15:55.000Z,140.00
2022-10-02T10:16:54.987Z,100.00
2022-10-02T10:17:54.993Z,68.00
2022-10-02T10:18:54.974Z,28.00
2022-10-02T10:19:54.989Z,36.00
2022-10-02T10:20:54.968Z,32.00
2022-10-02T10:21:54.954Z,64.00
2022-10-02T10:22:54.927Z,56.00
2022-10-02T10:23:54.919Z,56.00
2022-10-02T10:24:54.931Z,52.00
2022-10-02T10:25:54.903Z,64.00
2022-10-02T10:26:54.909Z,80.00
2022-10-02T10:27:54.930Z,92.00
2022-10-02T10:28:54.860Z,108.00
2022-10-02T10:29:54.854Z,120.00
2022-10-02T10:30:54.843Z,136.00
2022-10-02T10:31:54.873Z,184.00
2022-10-02T10:32:54.822Z,420.00
2022-10-02T10:33:54.809Z,568.00
2022-10-02T10:34:54.796Z,444.00
2022-10-02T10:35:54.816Z,500.00
2022-10-02T10:36:54.798Z,820.00
2022-10-02T10:37:54.775Z,1580.00
2022-10-02T10:38:54.755Z,1352.00
2022-10-02T10:39:54.769Z,1016.00
2022-10-02T10:40:54.733Z,1292.00
2022-10-02T10:41:54.745Z,1344.00
2022-10-02T10:43:07.424Z,1048.00
2022-10-02T10:43:55.700Z,640.00
2022-10-02T10:44:54.690Z,472.00
2022-10-02T10:45:54.749Z,448.00
2022-10-02T10:46:54.695Z,464.00
2022-10-02T10:47:54.658Z,480.00
2022-10-02T10:48:54.648Z,528.00
2022-10-02T10:49:54.644Z,464.00
2022-10-02T10:50:54.630Z,452.00
2022-10-02T10:51:54.641Z,480.00
2022-10-02T10:52:54.625Z,596.00
2022-10-02T10:53:57.203Z,488.00
2022-10-02T10:54:55.584Z,612.00
2022-10-02T10:55:54.600Z,736.00
2022-10-02T10:56:54.564Z,744.00
2022-10-02T10:57:54.554Z,480.00
2022-10-02T10:58:54.545Z,564.00
2022-10-02T10:59:54.530Z,240.00
2022-10-02T11:00:54.582Z,312.00
2022-10-02T11:01:54.539Z,348.00
2022-10-02T11:02:54.523Z,320.00
2022-10-02T11:03:54.496Z,244.00
2022-10-02T11:04:54.487Z,236.00
2022-10-02T11:05:54.501Z,260.00
2022-10-02T11:06:54.458Z,364.00
2022-10-02T11:07:54.451Z,740.00
2022-10-02T11:08:54.455Z,732.00
2022-10-02T11:09:54.425Z,564.00
2022-10-02T11:10:54.434Z,708.00
2022-10-02T11:11:54.427Z,600.00
2022-10-02T11:12:54.403Z,656.00
2022-10-02T11:13:54.379Z,388.00
2022-10-02T11:14:54.372Z,216.00
2022-10-02T11:15:54.359Z,252.00
2022-10-02T11:16:54.442Z,316.00
2022-10-02T11:17:54.367Z,616.00
2022-10-02T11:18:54.336Z,948.00
2022-10-02T11:19:54.316Z,268.00
2022-10-02T11:20:54.305Z,400.00
2022-10-02T11:21:54.318Z,544.00
2022-10-02T11:22:54.281Z,2620.00
2022-10-02T11:23:54.296Z,988.00
2022-10-02T11:24:54.280Z,472.00
2022-10-02T11:25:54.252Z,908.00
2022-10-02T11:26:54.264Z,748.00
2022-10-02T11:27:54.293Z,660.00
2022-10-02T11:28:54.219Z,732.00
2022-10-02T11:29:54.209Z,580.00
2022-10-02T11:30:54.194Z,592.00
2022-10-02T11:31:54.256Z,536.00
2022-10-02T11:32:54.186Z,576.00
2022-10-02T11:33:54.164Z,528.00
2022-10-02T11:34:54.178Z,508.00
2022-10-02T11:35:54.145Z,508.00
2022-10-02T11:36:54.130Z,504.00
2022-10-02T11:37:54.121Z,488.00
2022-10-02T11:38:54.111Z,468.00
2022-10-02T11:39:54.123Z,468.00
2022-10-02T11:40:54.243Z,488.00
2022-10-02T11:41:54.076Z,488.00
2022-10-02T11:42:54.144Z,460.00
2022-10-02T11:43:54.055Z,456.00
2022-10-02T11:44:54.064Z,460.00
2022-10-02T11:45:54.147Z,464.00
2022-10-02T11:46:54.051Z,436.00
2022-10-02T11:47:54.014Z,420.00
2022-10-02T11:48:54.006Z,432.00
2022-10-02T11:49:53.989Z,424.00
2022-10-02T11:50:53.977Z,420.00
2022-10-02T11:51:53.985Z,424.00
2022-10-02T11:52:53.975Z,424.00
2022-10-02T11:53:53.948Z,424.00
2022-10-02T11:54:53.939Z,412.00
2022-10-02T11:55:53.923Z,464.00
2022-10-02T11:56:53.928Z,416.00
2022-10-02T11:57:53.929Z,404.00
2022-10-02T11:58:53.893Z,416.00
2022-10-02T11:59:53.879Z,420.00
2022-10-02T12:00:53.872Z,796.00
2022-10-02T12:01:53.925Z,460.00
2022-10-02T12:02:54.031Z,424.00
2022-10-02T12:03:53.833Z,460.00
2022-10-02T12:04:53.827Z,616.00
2022-10-02T12:05:53.814Z,460.00
2022-10-02T12:06:53.817Z,412.00
2022-10-02T12:07:53.787Z,408.00
2022-10-02T12:08:53.804Z,412.00
2022-10-02T12:09:53.772Z,504.00
2022-10-02T12:10:53.784Z,724.00
2022-10-02T12:11:53.752Z,612.00
2022-10-02T12:12:53.764Z,836.00
2022-10-02T12:13:53.743Z,812.00
2022-10-02T12:14:53.715Z,268.00
2022-10-02T12:15:53.707Z,616.00
2022-10-02T12:16:53.775Z,492.00
2022-10-02T12:17:53.710Z,228.00
2022-10-02T12:18:53.675Z,172.00
2022-10-02T12:19:53.665Z,532.00
2022-10-02T12:20:53.656Z,696.00
2022-10-02T12:21:53.638Z,600.00
2022-10-02T12:22:53.648Z,296.00
2022-10-02T12:23:53.623Z,604.00
2022-10-02T12:24:55.016Z,648.00
2022-10-02T12:25:53.603Z,748.00
2022-10-02T12:26:53.589Z,588.00
2022-10-02T12:27:53.647Z,552.00
2022-10-02T12:28:53.585Z,320.00
2022-10-02T12:29:53.573Z,204.00
2022-10-02T12:30:53.548Z,528.00
2022-10-02T12:31:53.578Z,320.00
2022-10-02T12:32:53.519Z,540.00
2022-10-02T12:33:56.640Z,492.00
2022-10-02T12:34:53.523Z,536.00
2022-10-02T12:35:53.493Z,552.00
2022-10-02T12:36:53.485Z,560.00
2022-10-02T12:37:53.464Z,572.00
2022-10-02T12:38:53.464Z,552.00
2022-10-02T12:39:53.476Z,544.00
2022-10-02T12:40:53.435Z,548.00
2022-10-02T12:41:53.424Z,540.00
2022-10-02T12:42:53.413Z,528.00
2022-10-02T12:43:53.398Z,556.00
2022-10-02T12:44:53.409Z,668.00
2022-10-02T12:45:53.454Z,1040.00
2022-10-02T12:46:53.368Z,608.00
2022-10-02T12:47:53.358Z,872.00
2022-10-02T12:48:53.345Z,1088.00
2022-10-02T12:49:53.343Z,956.00